DIAP

Port Bouet Airport

Abidjan, Côte D’Ivoire
METAR DIAP 170530Z 29003KT 8000 FEW011 BKN040 26/24 Q1011 NOSIG
Observed Flight Rules
Dec-17 @ 05:30 UTC (39 minutes ago) Marginal Visual Flight Rules
Wind Visibility Clouds
290° at 3 knots 7,998 meters
  • Few at 1,100' AGL
  • Broken at 4,000' AGL
Temperatures Readings
Current 26°C / 79°F
Dewpoint 24°C / 75°F
Humidity 89%
Altimeter 29.85" Hg
Pressure 1011 hPa
Elevation 8
METAR DIAP 170530Z 29003KT 8000 FEW011 BKN040 26/24 Q1011 NOSIG
Observed Flight Rules
Dec-17 @ 05:30 UTC
(39 minutes ago)
MVFR
Wind Visibility
290° at 3 knots 7,998 meters
Clouds
  • Few at 1,100' AGL
  • Broken at 4,000' AGL
Temperature Dewpoint
26°C / 79°F 24°C / 75°F
Humidity Altimeter Pressure
89% 29.85" Hg 1011 hPa